createdAt,value
2022-08-28T00:00:12.516Z,100556.78
2022-08-28T00:02:39.118Z,100555.97
2022-08-28T00:05:07.073Z,100559.41
2022-08-28T00:07:34.290Z,100563.19
2022-08-28T00:10:00.880Z,100556.97
2022-08-28T00:12:27.958Z,100561.59
2022-08-28T00:14:54.483Z,100561.72
2022-08-28T00:17:21.006Z,100564.75
2022-08-28T00:19:47.553Z,100560.59
2022-08-28T00:22:14.077Z,100567.16
2022-08-28T00:24:44.508Z,100567.16
2022-08-28T00:27:30.224Z,100572.84
2022-08-28T00:29:56.741Z,100573.22
2022-08-28T00:32:25.088Z,100570.91
2022-08-28T00:34:51.943Z,100582.97
2022-08-28T00:37:18.919Z,100586.75
2022-08-28T00:39:46.325Z,100593.69
2022-08-28T00:42:13.849Z,100592.25
2022-08-28T00:44:40.490Z,100588.47
2022-08-28T00:47:07.045Z,100588.47
2022-08-28T00:49:37.420Z,100589.91
2022-08-28T00:52:08.596Z,100577.91
2022-08-28T00:54:59.403Z,100580.91
2022-08-28T00:57:34.078Z,100586.59
2022-08-28T01:00:00.731Z,100589.09
2022-08-28T01:02:27.805Z,100588.47
2022-08-28T01:04:55.407Z,100583.84
2022-08-28T01:07:23.187Z,100587.34
2022-08-28T01:09:53.561Z,100577.78
2022-08-28T01:12:30.796Z,100582.00
2022-08-28T01:15:00.331Z,100577.34
2022-08-28T01:17:30.997Z,100585.56
2022-08-28T01:20:03.324Z,100580.19
2022-08-28T01:22:38.590Z,100581.72
2022-08-28T01:25:10.505Z,100584.47
2022-08-28T01:27:37.220Z,100579.00
2022-08-28T01:30:04.775Z,100575.50
2022-08-28T01:32:36.529Z,100569.38
2022-08-28T01:35:06.791Z,100572.91
2022-08-28T01:37:33.385Z,100569.56
2022-08-28T01:40:01.241Z,100567.91
2022-08-28T01:42:28.358Z,100569.94
2022-08-28T01:44:54.912Z,100571.78
2022-08-28T01:47:21.827Z,100566.59
2022-08-28T01:49:49.132Z,100572.72
2022-08-28T01:52:15.680Z,100571.13
2022-08-28T01:54:42.268Z,100566.44
2022-08-28T01:57:09.084Z,100566.47
2022-08-28T01:59:36.207Z,100559.66
2022-08-28T02:02:03.686Z,100563.13
2022-08-28T02:04:31.700Z,100567.78
2022-08-28T02:06:59.243Z,100569.59
2022-08-28T02:09:25.769Z,100570.31
2022-08-28T02:11:52.612Z,100584.09
2022-08-28T02:14:19.287Z,100575.50
2022-08-28T02:16:46.479Z,100576.75
2022-08-28T02:19:13.078Z,100576.44
2022-08-28T02:21:40.064Z,100574.97
2022-08-28T02:24:06.948Z,100578.44
2022-08-28T02:26:33.469Z,100576.50
2022-08-28T02:29:00.045Z,100576.03
2022-08-28T02:31:27.257Z,100572.63
2022-08-28T02:33:53.850Z,100578.06
2022-08-28T02:36:21.946Z,100581.06
2022-08-28T02:38:48.577Z,100580.44
2022-08-28T02:41:15.097Z,100587.66
2022-08-28T02:43:41.639Z,100587.16
2022-08-28T02:46:09.077Z,100584.91
2022-08-28T02:48:37.494Z,100587.16
2022-08-28T02:51:08.299Z,100586.88
2022-08-28T02:53:35.729Z,100586.94
2022-08-28T02:56:03.014Z,100585.75
2022-08-28T02:58:32.769Z,100587.63
2022-08-28T03:01:07.509Z,100580.06
2022-08-28T03:03:34.207Z,100588.81
2022-08-28T03:06:02.664Z,100589.53
2022-08-28T03:08:31.547Z,100582.63
2022-08-28T03:10:59.235Z,100581.09
2022-08-28T03:13:26.950Z,100576.53
2022-08-28T03:15:55.782Z,100583.06
2022-08-28T03:18:24.386Z,100579.94
2022-08-28T03:20:52.784Z,100581.13
2022-08-28T03:23:28.241Z,100592.59
2022-08-28T03:25:56.056Z,100584.56
2022-08-28T03:28:24.164Z,100585.38
2022-08-28T03:30:50.878Z,100580.59
2022-08-28T03:33:18.054Z,100580.38
2022-08-28T03:35:44.880Z,100586.88
2022-08-28T03:38:11.732Z,100587.97
2022-08-28T03:40:42.468Z,100581.81
2022-08-28T03:43:14.603Z,100591.13
2022-08-28T03:45:41.554Z,100592.63
2022-08-28T03:48:08.410Z,100589.91
2022-08-28T03:50:36.077Z,100585.75
2022-08-28T03:53:02.973Z,100592.56
2022-08-28T03:55:30.233Z,100588.06
2022-08-28T03:57:56.831Z,100594.53
2022-08-28T04:00:23.591Z,100597.56
2022-08-28T04:02:50.119Z,100598.78
2022-08-28T04:05:17.502Z,100597.69
2022-08-28T04:07:44.083Z,100602.97
2022-08-28T04:10:12.167Z,100594.53
2022-08-28T04:12:38.821Z,100594.94
2022-08-28T04:15:07.136Z,100597.22
2022-08-28T04:17:33.959Z,100601.47
2022-08-28T04:20:00.500Z,100600.66
2022-08-28T04:22:27.412Z,100602.22
2022-08-28T04:24:54.523Z,100602.25
2022-08-28T04:27:21.060Z,100603.34
2022-08-28T04:29:49.037Z,100607.13
2022-08-28T04:32:15.658Z,100604.09
2022-08-28T04:34:42.351Z,100611.44
2022-08-28T04:37:08.908Z,100616.00
2022-08-28T04:39:35.491Z,100621.34
2022-08-28T04:42:02.080Z,100611.06
2022-08-28T04:44:28.762Z,100621.03
2022-08-28T04:46:55.291Z,100614.47
2022-08-28T04:49:25.959Z,100624.50
2022-08-28T04:51:52.688Z,100618.75
2022-08-28T04:54:19.733Z,100618.75
2022-08-28T04:56:46.359Z,100615.31
2022-08-28T04:59:13.525Z,100618.34
2022-08-28T05:01:41.899Z,100616.38
2022-08-28T05:04:11.242Z,100619.09
2022-08-28T05:06:43.293Z,100621.75
2022-08-28T05:09:09.935Z,100621.22
2022-08-28T05:11:36.571Z,100621.38
2022-08-28T05:14:05.685Z,100624.06
2022-08-28T05:16:34.507Z,100630.97
2022-08-28T05:19:02.203Z,100628.97
2022-08-28T05:21:28.820Z,100630.03
2022-08-28T05:23:57.585Z,100633.91
2022-08-28T05:26:27.115Z,100636.94
2022-08-28T05:28:57.188Z,100647.75
2022-08-28T05:31:24.580Z,100649.22
2022-08-28T05:33:52.737Z,100658.56
2022-08-28T05:36:22.539Z,100657.66
2022-08-28T05:38:50.570Z,100666.81
2022-08-28T05:41:22.659Z,100669.25
2022-08-28T05:43:49.194Z,100673.03
2022-08-28T05:46:17.288Z,100678.41
2022-08-28T05:48:45.523Z,100684.75
2022-08-28T05:51:14.458Z,100683.97
2022-08-28T05:53:43.018Z,100686.75
2022-08-28T05:56:13.107Z,100681.47
2022-08-28T05:58:40.449Z,100684.91
2022-08-28T06:01:12.673Z,100691.72
2022-08-28T06:03:41.457Z,100683.13
2022-08-28T06:06:09.127Z,100681.03
2022-08-28T06:08:36.382Z,100683.03
2022-08-28T06:11:03.984Z,100679.94
2022-08-28T06:13:31.747Z,100687.00
2022-08-28T06:15:58.629Z,100674.97
2022-08-28T06:18:25.613Z,100680.03
2022-08-28T06:20:53.257Z,100673.97
2022-08-28T06:23:23.870Z,100674.78
2022-08-28T06:25:51.961Z,100676.97
2022-08-28T06:28:21.699Z,100677.50
2022-08-28T06:31:09.186Z,100683.59
2022-08-28T06:33:37.680Z,100683.16
2022-08-28T06:36:05.904Z,100681.81
2022-08-28T06:38:32.514Z,100677.00
2022-08-28T06:40:59.895Z,100679.13
2022-08-28T06:43:28.473Z,100690.78
2022-08-28T06:45:56.631Z,100693.41
2022-08-28T06:48:27.345Z,100695.63
2022-08-28T06:50:55.805Z,100701.47
2022-08-28T06:53:25.986Z,100696.75
2022-08-28T06:55:58.531Z,100697.03
2022-08-28T06:58:25.458Z,100698.25
2022-08-28T07:01:03.084Z,100697.09
2022-08-28T07:03:33.062Z,100700.78
2022-08-28T07:06:01.577Z,100702.91
2022-08-28T07:08:29.585Z,100705.25
2022-08-28T07:10:56.634Z,100703.28
2022-08-28T07:13:23.411Z,100703.34
2022-08-28T07:15:50.401Z,100702.56
2022-08-28T07:18:17.546Z,100706.00
2022-08-28T07:20:45.367Z,100708.78
2022-08-28T07:23:11.975Z,100709.50
2022-08-28T07:25:41.907Z,100702.78
2022-08-28T07:28:09.202Z,100699.63
2022-08-28T07:30:35.807Z,100704.06
2022-08-28T07:33:02.623Z,100701.91
2022-08-28T07:35:29.196Z,100693.84
2022-08-28T07:37:55.754Z,100706.72
2022-08-28T07:40:22.915Z,100714.84
2022-08-28T07:43:08.354Z,100712.75
2022-08-28T07:45:35.882Z,100710.28
2022-08-28T07:48:11.237Z,100718.44
2022-08-28T07:50:38.281Z,100712.91
2022-08-28T07:53:08.064Z,100713.56
2022-08-28T07:55:34.593Z,100713.47
2022-08-28T07:58:02.192Z,100716.81
2022-08-28T08:00:28.724Z,100715.66
2022-08-28T08:02:55.252Z,100730.31
2022-08-28T08:05:21.887Z,100725.41
2022-08-28T08:07:48.430Z,100726.75
2022-08-28T08:10:15.041Z,100735.31
2022-08-28T08:12:47.075Z,100730.09
2022-08-28T08:15:13.717Z,100733.56
2022-08-28T08:17:40.362Z,100738.00
2022-08-28T08:20:08.393Z,100740.59
2022-08-28T08:22:35.320Z,100745.63
2022-08-28T08:25:05.250Z,100740.88
2022-08-28T08:27:33.117Z,100748.44
2022-08-28T08:29:59.792Z,100745.72
2022-08-28T08:32:26.692Z,100752.13
2022-08-28T08:34:58.421Z,100741.72
2022-08-28T08:37:24.972Z,100742.78
2022-08-28T08:39:53.346Z,100752.03
2022-08-28T08:42:27.675Z,100749.22
2022-08-28T08:44:56.339Z,100747.81
2022-08-28T08:47:49.261Z,100757.69
2022-08-28T08:50:21.543Z,100749.84
2022-08-28T08:53:19.012Z,100745.13
2022-08-28T08:55:57.785Z,100756.00
2022-08-28T08:58:36.551Z,100753.00
2022-08-28T09:01:25.526Z,100751.53
2022-08-28T09:04:15.765Z,100753.69
2022-08-28T09:06:51.230Z,100747.31
2022-08-28T09:09:25.789Z,100752.59
2022-08-28T09:12:07.858Z,100753.91
2022-08-28T09:14:47.439Z,100750.06
2022-08-28T09:17:17.304Z,100752.81
2022-08-28T09:19:44.008Z,100737.56
2022-08-28T09:22:10.605Z,100756.75
2022-08-28T09:24:40.064Z,100754.69
2022-08-28T09:27:21.290Z,100758.56
2022-08-28T09:29:55.646Z,100751.56
2022-08-28T09:32:32.528Z,100756.03
2022-08-28T09:35:02.076Z,100754.53
2022-08-28T09:37:32.598Z,100764.34
2022-08-28T09:40:17.052Z,100762.16
2022-08-28T09:43:20.408Z,100774.66
2022-08-28T09:46:20.100Z,100774.50
2022-08-28T09:48:48.456Z,100767.66
2022-08-28T09:51:21.106Z,100767.19
2022-08-28T09:53:50.447Z,100766.84
2022-08-28T09:56:22.691Z,100764.22
2022-08-28T09:59:05.731Z,100772.56
2022-08-28T10:01:41.097Z,100764.94
2022-08-28T10:04:11.760Z,100767.69
2022-08-28T10:06:39.333Z,100771.31
2022-08-28T10:09:26.613Z,100763.81
2022-08-28T10:12:08.613Z,100767.59
2022-08-28T10:15:00.877Z,100759.44
2022-08-28T10:17:42.927Z,100758.53
2022-08-28T10:20:18.461Z,100752.44
2022-08-28T10:23:03.094Z,100761.06
2022-08-28T10:25:59.729Z,100762.88
2022-08-28T10:28:50.677Z,100755.88
2022-08-28T10:31:42.102Z,100752.06
2022-08-28T10:34:40.408Z,100751.19
2022-08-28T10:37:12.625Z,100747.78
2022-08-28T10:39:58.542Z,100753.66
2022-08-28T10:42:30.223Z,100754.03
2022-08-28T10:45:12.778Z,100757.75
2022-08-28T10:47:44.829Z,100755.97
2022-08-28T10:50:42.484Z,100749.44
2022-08-28T10:53:21.569Z,100750.06
2022-08-28T10:56:02.699Z,100751.91
2022-08-28T10:58:31.990Z,100746.84
2022-08-28T11:01:11.304Z,100748.44
2022-08-28T11:03:45.140Z,100748.09
2022-08-28T11:06:36.554Z,100748.25
2022-08-28T11:09:25.731Z,100740.16
2022-08-28T11:12:01.969Z,100743.09
2022-08-28T11:14:32.576Z,100745.47
2022-08-28T11:17:04.896Z,100746.66
2022-08-28T11:19:52.562Z,100746.81
2022-08-28T11:22:24.984Z,100743.94
2022-08-28T11:25:03.252Z,100749.34
2022-08-28T11:27:36.343Z,100746.22
2022-08-28T11:30:06.428Z,100749.84
2022-08-28T11:32:33.154Z,100747.59
2022-08-28T11:35:04.176Z,100736.81
2022-08-28T11:37:41.891Z,100742.78
2022-08-28T11:40:34.855Z,100735.84
2022-08-28T11:43:17.034Z,100747.94
2022-08-28T11:45:45.779Z,100743.34
2022-08-28T11:48:23.236Z,100743.69
2022-08-28T11:50:52.922Z,100738.81
2022-08-28T11:53:26.534Z,100736.06
2022-08-28T11:56:13.946Z,100743.28
2022-08-28T11:59:10.488Z,100734.09
2022-08-28T12:01:37.818Z,100738.13
2022-08-28T12:04:14.269Z,100745.06
2022-08-28T12:07:08.540Z,100741.38
2022-08-28T12:09:45.323Z,100737.94
2022-08-28T12:12:22.443Z,100735.72
2022-08-28T12:14:54.693Z,100731.91
2022-08-28T12:17:21.283Z,100725.19
2022-08-28T12:19:55.764Z,100727.38
2022-08-28T12:22:26.395Z,100729.41
2022-08-28T12:25:05.575Z,100722.22
2022-08-28T12:27:37.137Z,100716.00
2022-08-28T12:30:04.358Z,100722.28
2022-08-28T12:32:37.791Z,100729.53
2022-08-28T12:35:16.872Z,100713.03
2022-08-28T12:38:00.921Z,100717.28
2022-08-28T12:40:34.966Z,100724.34
2022-08-28T12:43:15.184Z,100710.97
2022-08-28T12:45:55.450Z,100713.63
2022-08-28T12:48:24.279Z,100713.13
2022-08-28T12:51:21.842Z,100707.41
2022-08-28T12:53:56.668Z,100707.16
2022-08-28T12:56:25.459Z,100704.94
2022-08-28T12:58:52.643Z,100702.28
2022-08-28T13:01:33.886Z,100702.59
2022-08-28T13:04:18.402Z,100701.41
2022-08-28T13:06:45.197Z,100704.13
2022-08-28T13:09:17.362Z,100701.81
2022-08-28T13:11:50.384Z,100702.63
2022-08-28T13:14:46.118Z,100688.97
2022-08-28T13:17:15.117Z,100699.03
2022-08-28T13:19:44.005Z,100693.63
2022-08-28T13:22:32.455Z,100688.81
2022-08-28T13:25:01.544Z,100681.41
2022-08-28T13:27:28.937Z,100685.69
2022-08-28T13:30:02.817Z,100682.41
2022-08-28T13:32:33.242Z,100680.47
2022-08-28T13:35:06.078Z,100669.72
2022-08-28T13:37:58.853Z,100673.56
2022-08-28T13:40:56.296Z,100674.47
2022-08-28T13:43:16.487Z,100674.25
2022-08-28T13:45:48.124Z,100667.19
2022-08-28T13:48:17.241Z,100672.13
2022-08-28T13:50:46.935Z,100663.13
2022-08-28T13:53:16.644Z,100666.63
2022-08-28T13:55:43.496Z,100666.13
2022-08-28T13:58:10.598Z,100662.97
2022-08-28T14:00:41.810Z,100661.66
2022-08-28T14:03:26.920Z,100664.56
2022-08-28T14:05:54.252Z,100658.50
2022-08-28T14:08:21.632Z,100661.56
2022-08-28T14:10:48.708Z,100663.97
2022-08-28T14:13:15.542Z,100667.00
2022-08-28T14:15:42.070Z,100664.50
2022-08-28T14:18:08.704Z,100667.25
2022-08-28T14:20:35.225Z,100658.56
2022-08-28T14:23:01.749Z,100666.84
2022-08-28T14:25:28.337Z,100672.31
2022-08-28T14:27:55.787Z,100661.94
2022-08-28T14:30:22.865Z,100664.72
2022-08-28T14:32:49.380Z,100665.34
2022-08-28T14:35:15.905Z,100668.63
2022-08-28T14:37:42.603Z,100661.84
2022-08-28T14:40:09.962Z,100660.78
2022-08-28T14:42:36.610Z,100658.34
2022-08-28T14:45:03.516Z,100655.72
2022-08-28T14:47:30.449Z,100657.78
2022-08-28T14:49:56.999Z,100654.72
2022-08-28T14:52:23.716Z,100653.59
2022-08-28T14:54:50.320Z,100659.63
2022-08-28T14:57:16.963Z,100652.75
2022-08-28T14:59:44.835Z,100653.22
2022-08-28T15:02:13.493Z,100653.81
2022-08-28T15:04:40.023Z,100657.03
2022-08-28T15:07:10.565Z,100649.78
2022-08-28T15:09:41.151Z,100654.31
2022-08-28T15:12:08.265Z,100654.13
2022-08-28T15:14:35.810Z,100650.84
2022-08-28T15:17:02.563Z,100650.78
2022-08-28T15:19:29.998Z,100648.81
2022-08-28T15:21:57.485Z,100648.84
2022-08-28T15:24:31.343Z,100655.22
2022-08-28T15:26:59.508Z,100654.44
2022-08-28T15:29:28.081Z,100641.78
2022-08-28T15:31:55.281Z,100644.91
2022-08-28T15:34:27.160Z,100639.94
2022-08-28T15:36:55.753Z,100638.91
2022-08-28T15:39:46.492Z,100635.72
2022-08-28T15:42:13.659Z,100632.44
2022-08-28T15:44:40.837Z,100633.50
2022-08-28T15:47:07.974Z,100642.28
2022-08-28T15:49:45.772Z,100634.44
2022-08-28T15:52:18.455Z,100626.41
2022-08-28T15:54:45.097Z,100638.06
2022-08-28T15:57:11.812Z,100636.84
2022-08-28T15:59:48.646Z,100630.81
2022-08-28T16:02:18.886Z,100638.34
2022-08-28T16:04:45.800Z,100635.31
2022-08-28T16:07:12.449Z,100633.22
2022-08-28T16:09:39.047Z,100623.56
2022-08-28T16:12:05.889Z,100637.28
2022-08-28T16:14:33.590Z,100636.19
2022-08-28T16:17:05.706Z,100633.47
2022-08-28T16:19:38.385Z,100637.38
2022-08-28T16:22:05.483Z,100644.78
2022-08-28T16:24:32.105Z,100638.63
2022-08-28T16:26:58.679Z,100643.09
2022-08-28T16:29:25.306Z,100638.41
2022-08-28T16:31:52.143Z,100631.44
2022-08-28T16:34:19.418Z,100633.25
2022-08-28T16:36:50.218Z,100637.69
2022-08-28T16:39:16.911Z,100637.81
2022-08-28T16:41:49.537Z,100639.16
2022-08-28T16:44:20.728Z,100637.81
2022-08-28T16:46:47.761Z,100638.97
2022-08-28T16:49:14.837Z,100631.88
2022-08-28T16:51:41.381Z,100638.84
2022-08-28T16:54:08.125Z,100633.44
2022-08-28T16:56:34.754Z,100627.81
2022-08-28T16:59:01.375Z,100631.03
2022-08-28T17:01:28.078Z,100638.31
2022-08-28T17:03:54.750Z,100628.69
2022-08-28T17:06:31.624Z,100630.59
2022-08-28T17:08:58.874Z,100632.13
2022-08-28T17:11:26.965Z,100628.78
2022-08-28T17:13:54.102Z,100628.66
2022-08-28T17:16:21.795Z,100630.44
2022-08-28T17:18:52.635Z,100626.41
2022-08-28T17:21:39.965Z,100628.72
2022-08-28T17:24:07.321Z,100625.13
2022-08-28T17:26:34.060Z,100621.63
2022-08-28T17:29:00.710Z,100624.78
2022-08-28T17:31:27.458Z,100632.81
2022-08-28T17:33:54.282Z,100635.34
2022-08-28T17:36:32.779Z,100631.94
2022-08-28T17:39:08.003Z,100633.28
2022-08-28T17:41:34.979Z,100639.53
2022-08-28T17:44:03.057Z,100636.31
2022-08-28T17:46:32.796Z,100632.31
2022-08-28T17:49:03.251Z,100641.81
2022-08-28T17:51:42.254Z,100647.75
2022-08-28T17:54:12.685Z,100648.59
2022-08-28T17:56:39.350Z,100653.06
2022-08-28T17:59:05.938Z,100655.88
2022-08-28T18:01:32.540Z,100660.63
2022-08-28T18:03:59.169Z,100666.59
2022-08-28T18:06:25.832Z,100659.09
2022-08-28T18:08:52.375Z,100655.69
2022-08-28T18:11:19.254Z,100664.28
2022-08-28T18:13:46.375Z,100673.66
2022-08-28T18:16:13.198Z,100672.94
2022-08-28T18:18:40.488Z,100677.63
2022-08-28T18:21:09.833Z,100668.78
2022-08-28T18:23:36.709Z,100673.66
2022-08-28T18:26:03.286Z,100687.16
2022-08-28T18:28:29.983Z,100685.94
2022-08-28T18:30:56.676Z,100683.06
2022-08-28T18:33:24.365Z,100694.44
2022-08-28T18:35:52.329Z,100697.34
2022-08-28T18:38:20.675Z,100695.75
2022-08-28T18:40:47.924Z,100705.34
2022-08-28T18:43:14.554Z,100705.28
2022-08-28T18:45:41.166Z,100696.81
2022-08-28T18:48:10.797Z,100707.44
2022-08-28T18:50:37.963Z,100701.16
2022-08-28T18:53:05.795Z,100712.16
2022-08-28T18:55:32.903Z,100710.53
2022-08-28T18:58:01.107Z,100723.19
2022-08-28T19:00:28.488Z,100727.47
2022-08-28T19:02:55.278Z,100730.06
2022-08-28T19:05:22.625Z,100731.59
2022-08-28T19:07:49.549Z,100735.09
2022-08-28T19:10:32.731Z,100739.69
2022-08-28T19:13:00.942Z,100739.78
2022-08-28T19:15:28.336Z,100737.81
2022-08-28T19:17:55.353Z,100749.19
2022-08-28T19:20:22.212Z,100749.88
2022-08-28T19:22:49.001Z,100757.22
2022-08-28T19:25:28.619Z,100759.22
2022-08-28T19:27:58.833Z,100764.09
2022-08-28T19:30:28.979Z,100771.31
2022-08-28T19:32:55.777Z,100774.28
2022-08-28T19:35:24.468Z,100775.34
2022-08-28T19:37:52.316Z,100783.31
2022-08-28T19:40:20.545Z,100781.44
2022-08-28T19:42:47.932Z,100781.63
2022-08-28T19:45:15.197Z,100788.56
2022-08-28T19:47:42.417Z,100796.19
2022-08-28T19:50:11.642Z,100799.72
2022-08-28T19:52:38.776Z,100800.50
2022-08-28T19:55:07.281Z,100799.38
2022-08-28T19:57:34.752Z,100799.59
2022-08-28T20:00:02.014Z,100801.06
2022-08-28T20:02:29.424Z,100801.97
2022-08-28T20:04:56.267Z,100799.72
2022-08-28T20:07:24.822Z,100808.88
2022-08-28T20:09:52.072Z,100814.00
2022-08-28T20:12:18.780Z,100815.00
2022-08-28T20:14:45.539Z,100817.53
2022-08-28T20:17:12.317Z,100823.09
2022-08-28T20:19:39.134Z,100820.28
2022-08-28T20:22:05.996Z,100829.34
2022-08-28T20:24:32.742Z,100825.06
2022-08-28T20:26:59.289Z,100825.22
2022-08-28T20:29:25.834Z,100824.81
2022-08-28T20:31:52.855Z,100828.09
2022-08-28T20:34:20.296Z,100830.63
2022-08-28T20:36:47.567Z,100835.31
2022-08-28T20:39:14.753Z,100830.38
2022-08-28T20:41:42.514Z,100831.66
2022-08-28T20:44:12.710Z,100835.09
2022-08-28T20:46:41.974Z,100840.75
2022-08-28T20:49:13.284Z,100844.81
2022-08-28T20:51:53.728Z,100846.25
2022-08-28T20:54:44.713Z,100846.88
2022-08-28T20:57:15.421Z,100851.34
2022-08-28T20:59:43.703Z,100845.31
2022-08-28T21:02:13.602Z,100851.44
2022-08-28T21:04:42.693Z,100848.84
2022-08-28T21:07:10.256Z,100850.41
2022-08-28T21:10:05.396Z,100854.88
2022-08-28T21:12:23.854Z,100853.19
2022-08-28T21:14:52.739Z,100859.34
2022-08-28T21:17:29.821Z,100859.44
2022-08-28T21:20:00.091Z,100862.88
2022-08-28T21:22:26.935Z,100867.16
2022-08-28T21:24:54.019Z,100877.56
2022-08-28T21:27:20.625Z,100879.13
2022-08-28T21:29:47.803Z,100879.88
2022-08-28T21:32:14.543Z,100877.06
2022-08-28T21:34:41.143Z,100881.06
2022-08-28T21:37:07.714Z,100888.31
2022-08-28T21:39:35.084Z,100886.47
2022-08-28T21:42:01.698Z,100890.69
2022-08-28T21:44:35.803Z,100883.41
2022-08-28T21:47:02.360Z,100883.84
2022-08-28T21:49:29.110Z,100878.13
2022-08-28T21:51:55.680Z,100891.53
2022-08-28T21:54:23.051Z,100886.91
2022-08-28T21:56:50.654Z,100890.03
2022-08-28T21:59:30.282Z,100893.44
2022-08-28T22:02:04.521Z,100889.25
2022-08-28T22:04:31.165Z,100896.91
2022-08-28T22:06:57.697Z,100897.69
2022-08-28T22:09:24.258Z,100895.38
2022-08-28T22:11:50.785Z,100894.22
2022-08-28T22:14:17.310Z,100893.09
2022-08-28T22:16:44.424Z,100891.25
2022-08-28T22:19:10.966Z,100896.22
2022-08-28T22:21:56.557Z,100891.63
2022-08-28T22:24:23.621Z,100893.88
2022-08-28T22:26:50.296Z,100893.88
2022-08-28T22:29:24.244Z,100893.94
2022-08-28T22:31:50.811Z,100893.88
2022-08-28T22:34:17.408Z,100893.13
2022-08-28T22:36:43.987Z,100896.63
2022-08-28T22:39:10.529Z,100898.88
2022-08-28T22:41:37.438Z,100899.25
2022-08-28T22:44:04.457Z,100894.69
2022-08-28T22:46:31.039Z,100893.56
2022-08-28T22:48:57.553Z,100898.53
2022-08-28T22:51:24.112Z,100895.50
2022-08-28T22:53:50.751Z,100900.06
2022-08-28T22:56:17.601Z,100898.56
2022-08-28T22:58:44.667Z,100901.19
2022-08-28T23:01:15.424Z,100900.44
2022-08-28T23:03:42.132Z,100897.75
2022-08-28T23:06:08.836Z,100897.75
2022-08-28T23:08:35.514Z,100897.38
2022-08-28T23:11:02.421Z,100899.28
2022-08-28T23:13:30.454Z,100900.44
2022-08-28T23:15:57.307Z,100899.28
2022-08-28T23:18:23.824Z,100905.06
2022-08-28T23:20:51.514Z,100900.84
2022-08-28T23:23:19.216Z,100899.31
2022-08-28T23:25:46.008Z,100905.44
2022-08-28T23:28:13.076Z,100899.66
2022-08-28T23:30:41.230Z,100900.81
2022-08-28T23:33:19.780Z,100900.44
2022-08-28T23:35:51.784Z,100900.03
2022-08-28T23:38:18.628Z,100900.78
2022-08-28T23:40:47.963Z,100902.34
2022-08-28T23:43:15.157Z,100902.34
2022-08-28T23:45:43.506Z,100902.34
2022-08-28T23:48:10.214Z,100901.94
2022-08-28T23:50:39.546Z,100897.72
2022-08-28T23:53:08.019Z,100891.59
2022-08-28T23:55:34.801Z,100896.19
2022-08-28T23:58:03.481Z,100894.63
